sensor_id;sensor_type;location;lat;lon;timestamp;pressure;altitude;pressure_sealevel;temperature;humidity
34103;BME280;20381;54.498;18.206;2022-09-19T00:01:35;98380.61;;;9.35;91.64
34103;BME280;20381;54.498;18.206;2022-09-19T00:04:12;98383.41;;;9.32;91.89
34103;BME280;20381;54.498;18.206;2022-09-19T00:06:39;98377.45;;;9.30;91.99
34103;BME280;20381;54.498;18.206;2022-09-19T00:09:08;98380.05;;;9.30;92.08
34103;BME280;20381;54.498;18.206;2022-09-19T00:11:39;98378.00;;;9.35;92.29
34103;BME280;20381;54.498;18.206;2022-09-19T00:14:08;98385.26;;;9.37;92.14
34103;BME280;20381;54.498;18.206;2022-09-19T00:16:38;98381.55;;;9.34;92.14
34103;BME280;20381;54.498;18.206;2022-09-19T00:19:07;98384.11;;;9.48;92.01
34103;BME280;20381;54.498;18.206;2022-09-19T00:21:39;98381.16;;;9.40;92.07
34103;BME280;20381;54.498;18.206;2022-09-19T00:24:12;98379.38;;;9.40;92.27
34103;BME280;20381;54.498;18.206;2022-09-19T00:26:58;98377.05;;;9.43;92.33
34103;BME280;20381;54.498;18.206;2022-09-19T00:29:28;98376.49;;;9.45;92.36
34103;BME280;20381;54.498;18.206;2022-09-19T00:31:54;98375.19;;;9.45;92.32
34103;BME280;20381;54.498;18.206;2022-09-19T00:34:21;98372.94;;;9.46;92.35
34103;BME280;20381;54.498;18.206;2022-09-19T00:36:49;98370.34;;;9.46;92.32
34103;BME280;20381;54.498;18.206;2022-09-19T00:39:17;98371.28;;;9.45;92.32
34103;BME280;20381;54.498;18.206;2022-09-19T00:41:46;98374.83;;;9.44;92.38
34103;BME280;20381;54.498;18.206;2022-09-19T00:47:00;98360.31;;;9.40;92.28
34103;BME280;20381;54.498;18.206;2022-09-19T00:49:33;98359.56;;;9.38;92.29
34103;BME280;20381;54.498;18.206;2022-09-19T00:52:08;98355.50;;;9.34;92.23
34103;BME280;20381;54.498;18.206;2022-09-19T00:54:42;98357.00;;;9.31;92.26
34103;BME280;20381;54.498;18.206;2022-09-19T00:57:12;98356.81;;;9.27;92.32
34103;BME280;20381;54.498;18.206;2022-09-19T00:59:44;98349.94;;;9.26;92.35
34103;BME280;20381;54.498;18.206;2022-09-19T01:02:15;98357.01;;;9.24;92.40
34103;BME280;20381;54.498;18.206;2022-09-19T01:04:48;98354.25;;;9.19;92.38
34103;BME280;20381;54.498;18.206;2022-09-19T01:10:06;98364.19;;;9.20;92.55
34103;BME280;20381;54.498;18.206;2022-09-19T01:12:50;98364.47;;;9.15;92.53
34103;BME280;20381;54.498;18.206;2022-09-19T01:21:20;98359.66;;;9.09;92.61
34103;BME280;20381;54.498;18.206;2022-09-19T01:32:41;98372.39;;;9.14;92.57
34103;BME280;20381;54.498;18.206;2022-09-19T01:35:10;98379.38;;;9.13;92.64
34103;BME280;20381;54.498;18.206;2022-09-19T01:37:44;98392.37;;;9.21;92.45
34103;BME280;20381;54.498;18.206;2022-09-19T01:40:13;98397.41;;;9.16;92.28
34103;BME280;20381;54.498;18.206;2022-09-19T01:42:53;98398.36;;;9.08;92.52
34103;BME280;20381;54.498;18.206;2022-09-19T01:45:29;98396.30;;;9.06;92.87
34103;BME280;20381;54.498;18.206;2022-09-19T01:48:15;98399.09;;;9.03;93.47
34103;BME280;20381;54.498;18.206;2022-09-19T01:54:09;98404.30;;;9.03;93.94
34103;BME280;20381;54.498;18.206;2022-09-19T01:59:51;98405.08;;;8.91;94.49
34103;BME280;20381;54.498;18.206;2022-09-19T02:13:06;98406.47;;;8.96;94.62
34103;BME280;20381;54.498;18.206;2022-09-19T02:15:36;98399.67;;;8.94;94.54
34103;BME280;20381;54.498;18.206;2022-09-19T02:18:09;98402.64;;;8.95;94.42
34103;BME280;20381;54.498;18.206;2022-09-19T02:20:40;98401.34;;;8.95;94.31
34103;BME280;20381;54.498;18.206;2022-09-19T02:23:20;98411.00;;;8.93;94.47
34103;BME280;20381;54.498;18.206;2022-09-19T02:25:50;98405.44;;;8.92;94.34
34103;BME280;20381;54.498;18.206;2022-09-19T02:28:27;98405.91;;;8.91;94.92
34103;BME280;20381;54.498;18.206;2022-09-19T02:30:52;98403.49;;;8.88;94.79
34103;BME280;20381;54.498;18.206;2022-09-19T02:33:19;98406.17;;;8.87;94.50
34103;BME280;20381;54.498;18.206;2022-09-19T02:41:32;98400.97;;;8.87;94.58
34103;BME280;20381;54.498;18.206;2022-09-19T02:46:59;98400.97;;;8.87;94.56
34103;BME280;20381;54.498;18.206;2022-09-19T02:49:54;98397.81;;;8.89;94.53
34103;BME280;20381;54.498;18.206;2022-09-19T02:52:29;98407.85;;;9.02;94.20
34103;BME280;20381;54.498;18.206;2022-09-19T02:55:09;98405.05;;;9.05;94.07
34103;BME280;20381;54.498;18.206;2022-09-19T02:57:33;98405.97;;;9.04;94.11
34103;BME280;20381;54.498;18.206;2022-09-19T03:00:03;98402.45;;;9.05;94.04
34103;BME280;20381;54.498;18.206;2022-09-19T03:03:19;98401.43;;;9.08;94.20
34103;BME280;20381;54.498;18.206;2022-09-19T03:05:19;98399.82;;;9.12;94.22
34103;BME280;20381;54.498;18.206;2022-09-19T03:08:03;98392.92;;;9.18;94.25
34103;BME280;20381;54.498;18.206;2022-09-19T03:10:36;98392.01;;;9.19;94.09
34103;BME280;20381;54.498;18.206;2022-09-19T03:13:06;98396.27;;;9.21;94.03
34103;BME280;20381;54.498;18.206;2022-09-19T03:18:17;98400.45;;;9.23;94.18
34103;BME280;20381;54.498;18.206;2022-09-19T03:20:48;98392.76;;;9.22;94.18
34103;BME280;20381;54.498;18.206;2022-09-19T03:23:24;98396.47;;;9.25;94.28
34103;BME280;20381;54.498;18.206;2022-09-19T03:25:57;98389.64;;;9.29;94.18
34103;BME280;20381;54.498;18.206;2022-09-19T03:28:24;98387.52;;;9.29;93.92
34103;BME280;20381;54.498;18.206;2022-09-19T03:30:51;98386.02;;;9.32;94.10
34103;BME280;20381;54.498;18.206;2022-09-19T03:33:18;98383.61;;;9.29;93.83
34103;BME280;20381;54.498;18.206;2022-09-19T03:35:45;98387.55;;;9.22;94.13
34103;BME280;20381;54.498;18.206;2022-09-19T03:38:14;98381.67;;;9.18;94.54
34103;BME280;20381;54.498;18.206;2022-09-19T03:40:41;98378.98;;;9.19;94.72
34103;BME280;20381;54.498;18.206;2022-09-19T03:43:08;98377.30;;;9.18;94.62
34103;BME280;20381;54.498;18.206;2022-09-19T03:45:34;98380.84;;;9.17;94.78
34103;BME280;20381;54.498;18.206;2022-09-19T03:48:01;98382.50;;;9.18;94.81
34103;BME280;20381;54.498;18.206;2022-09-19T03:50:28;98380.84;;;9.17;94.70
34103;BME280;20381;54.498;18.206;2022-09-19T03:52:55;98376.94;;;9.17;94.63
34103;BME280;20381;54.498;18.206;2022-09-19T03:55:23;98380.09;;;9.15;94.59
34103;BME280;20381;54.498;18.206;2022-09-19T03:57:50;98382.53;;;9.11;94.53
34103;BME280;20381;54.498;18.206;2022-09-19T04:00:17;98388.60;;;9.05;94.30
34103;BME280;20381;54.498;18.206;2022-09-19T04:02:44;98389.45;;;8.91;94.25
34103;BME280;20381;54.498;18.206;2022-09-19T04:05:11;98389.09;;;8.83;94.37
34103;BME280;20381;54.498;18.206;2022-09-19T04:07:39;98392.08;;;8.77;94.36
34103;BME280;20381;54.498;18.206;2022-09-19T04:10:06;98401.64;;;8.69;94.32
34103;BME280;20381;54.498;18.206;2022-09-19T04:12:33;98403.39;;;8.61;94.39
34103;BME280;20381;54.498;18.206;2022-09-19T04:15:00;98411.02;;;8.57;94.65
34103;BME280;20381;54.498;18.206;2022-09-19T04:17:27;98413.42;;;8.53;94.53
34103;BME280;20381;54.498;18.206;2022-09-19T04:20:12;98409.34;;;8.49;94.60
34103;BME280;20381;54.498;18.206;2022-09-19T04:22:36;98419.94;;;8.46;94.63
34103;BME280;20381;54.498;18.206;2022-09-19T04:25:06;98414.88;;;8.43;94.65
34103;BME280;20381;54.498;18.206;2022-09-19T04:27:40;98421.50;;;8.41;94.71
34103;BME280;20381;54.498;18.206;2022-09-19T04:30:07;98424.56;;;8.41;94.77
34103;BME280;20381;54.498;18.206;2022-09-19T04:32:36;98436.63;;;8.42;94.86
34103;BME280;20381;54.498;18.206;2022-09-19T04:35:05;98439.98;;;8.44;94.92
34103;BME280;20381;54.498;18.206;2022-09-19T04:37:32;98436.84;;;8.46;94.88
34103;BME280;20381;54.498;18.206;2022-09-19T04:39:58;98428.85;;;8.49;94.95
34103;BME280;20381;54.498;18.206;2022-09-19T04:42:25;98425.41;;;8.56;94.99
34103;BME280;20381;54.498;18.206;2022-09-19T04:44:52;98422.55;;;8.60;94.97
34103;BME280;20381;54.498;18.206;2022-09-19T04:47:19;98431.75;;;8.66;95.08
34103;BME280;20381;54.498;18.206;2022-09-19T04:49:46;98442.98;;;8.66;94.87
34103;BME280;20381;54.498;18.206;2022-09-19T04:52:13;98441.14;;;8.68;94.69
34103;BME280;20381;54.498;18.206;2022-09-19T04:54:40;98433.14;;;8.71;94.94
34103;BME280;20381;54.498;18.206;2022-09-19T04:57:08;98432.77;;;8.78;95.00
34103;BME280;20381;54.498;18.206;2022-09-19T04:59:34;98435.00;;;8.84;94.93
34103;BME280;20381;54.498;18.206;2022-09-19T05:02:03;98434.62;;;8.90;95.03
34103;BME280;20381;54.498;18.206;2022-09-19T05:04:32;98433.52;;;8.94;95.08
34103;BME280;20381;54.498;18.206;2022-09-19T05:06:58;98440.00;;;9.01;95.18
34103;BME280;20381;54.498;18.206;2022-09-19T05:09:27;98442.98;;;9.09;95.09
34103;BME280;20381;54.498;18.206;2022-09-19T05:11:54;98436.83;;;9.17;95.14
34103;BME280;20381;54.498;18.206;2022-09-19T05:14:23;98444.65;;;9.25;95.06
34103;BME280;20381;54.498;18.206;2022-09-19T05:16:52;98440.72;;;9.32;95.00
34103;BME280;20381;54.498;18.206;2022-09-19T05:19:20;98438.11;;;9.39;94.98
34103;BME280;20381;54.498;18.206;2022-09-19T05:21:49;98444.59;;;9.46;94.97
34103;BME280;20381;54.498;18.206;2022-09-19T05:24:17;98443.84;;;9.51;94.75
34103;BME280;20381;54.498;18.206;2022-09-19T05:26:45;98451.06;;;9.60;94.98
34103;BME280;20381;54.498;18.206;2022-09-19T05:29:12;98445.56;;;9.65;94.89
34103;BME280;20381;54.498;18.206;2022-09-19T05:31:40;98437.08;;;9.69;94.62
34103;BME280;20381;54.498;18.206;2022-09-19T05:34:07;98439.13;;;9.71;94.68
34103;BME280;20381;54.498;18.206;2022-09-19T05:36:35;98442.64;;;9.77;94.79
34103;BME280;20381;54.498;18.206;2022-09-19T05:39:02;98443.81;;;9.85;94.83
34103;BME280;20381;54.498;18.206;2022-09-19T05:41:29;98445.78;;;9.89;94.52
34103;BME280;20381;54.498;18.206;2022-09-19T05:43:56;98453.02;;;9.91;94.58
34103;BME280;20381;54.498;18.206;2022-09-19T05:46:22;98457.45;;;10.03;94.90
34103;BME280;20381;54.498;18.206;2022-09-19T05:48:49;98451.80;;;10.17;94.97
34103;BME280;20381;54.498;18.206;2022-09-19T05:51:16;98458.98;;;10.33;94.69
34103;BME280;20381;54.498;18.206;2022-09-19T05:53:42;98464.92;;;10.42;94.52
34103;BME280;20381;54.498;18.206;2022-09-19T05:56:18;98460.96;;;10.75;95.34
34103;BME280;20381;54.498;18.206;2022-09-19T05:58:45;98458.55;;;11.23;95.01
34103;BME280;20381;54.498;18.206;2022-09-19T06:01:13;98465.85;;;11.73;95.22
34103;BME280;20381;54.498;18.206;2022-09-19T06:03:40;98466.02;;;12.25;94.75
34103;BME280;20381;54.498;18.206;2022-09-19T06:06:08;98458.76;;;12.75;94.42
34103;BME280;20381;54.498;18.206;2022-09-19T06:08:38;98458.31;;;13.38;94.15
34103;BME280;20381;54.498;18.206;2022-09-19T06:11:06;98461.81;;;13.82;93.58
34103;BME280;20381;54.498;18.206;2022-09-19T06:13:33;98464.41;;;13.93;91.53
34103;BME280;20381;54.498;18.206;2022-09-19T06:16:19;98471.05;;;13.97;91.53
34103;BME280;20381;54.498;18.206;2022-09-19T06:18:46;98470.16;;;13.87;91.24
34103;BME280;20381;54.498;18.206;2022-09-19T06:21:14;98475.94;;;14.02;91.87
34103;BME280;20381;54.498;18.206;2022-09-19T06:23:41;98484.45;;;14.26;91.60
34103;BME280;20381;54.498;18.206;2022-09-19T06:26:09;98483.36;;;14.29;90.87
34103;BME280;20381;54.498;18.206;2022-09-19T06:28:37;98485.68;;;14.43;91.61
34103;BME280;20381;54.498;18.206;2022-09-19T06:31:04;98484.55;;;14.78;92.38
34103;BME280;20381;54.498;18.206;2022-09-19T06:33:34;98487.00;;;15.21;91.81
34103;BME280;20381;54.498;18.206;2022-09-19T06:36:01;98486.00;;;15.53;91.68
34103;BME280;20381;54.498;18.206;2022-09-19T06:38:28;98488.88;;;15.91;92.22
34103;BME280;20381;54.498;18.206;2022-09-19T06:40:57;98487.64;;;16.04;90.49
34103;BME280;20381;54.498;18.206;2022-09-19T06:43:24;98490.09;;;16.31;90.85
34103;BME280;20381;54.498;18.206;2022-09-19T06:45:52;98489.59;;;16.51;90.80
34103;BME280;20381;54.498;18.206;2022-09-19T06:48:18;98491.81;;;16.46;89.14
34103;BME280;20381;54.498;18.206;2022-09-19T06:50:46;98504.93;;;16.22;87.86
34103;BME280;20381;54.498;18.206;2022-09-19T07:07:32;98500.81;;;16.92;92.37
34103;BME280;20381;54.498;18.206;2022-09-19T07:09:59;98511.28;;;16.68;88.52
34103;BME280;20381;54.498;18.206;2022-09-19T07:12:26;98516.23;;;16.28;88.90
34103;BME280;20381;54.498;18.206;2022-09-19T07:14:53;98524.07;;;15.89;88.49
34103;BME280;20381;54.498;18.206;2022-09-19T07:17:19;98531.77;;;15.56;89.14
34103;BME280;20381;54.498;18.206;2022-09-19T07:19:46;98538.05;;;15.19;88.63
34103;BME280;20381;54.498;18.206;2022-09-19T07:22:32;98543.92;;;14.75;88.20
34103;BME280;20381;54.498;18.206;2022-09-19T07:25:01;98546.41;;;14.50;88.60
34103;BME280;20381;54.498;18.206;2022-09-19T07:27:28;98542.51;;;14.06;87.42
34103;BME280;20381;54.498;18.206;2022-09-19T07:29:56;98550.05;;;13.83;88.57
34103;BME280;20381;54.498;18.206;2022-09-19T07:32:22;98551.77;;;13.61;88.18
34103;BME280;20381;54.498;18.206;2022-09-19T07:34:49;98554.39;;;13.39;88.26
34103;BME280;20381;54.498;18.206;2022-09-19T07:37:16;98560.39;;;13.06;87.83
34103;BME280;20381;54.498;18.206;2022-09-19T07:39:42;98564.22;;;12.66;87.63
34103;BME280;20381;54.498;18.206;2022-09-19T07:42:09;98571.23;;;12.36;88.07
34103;BME280;20381;54.498;18.206;2022-09-19T07:44:36;98572.58;;;12.23;88.40
34103;BME280;20381;54.498;18.206;2022-09-19T07:47:05;98570.86;;;12.11;88.84
34103;BME280;20381;54.498;18.206;2022-09-19T07:49:52;98575.10;;;12.06;88.67
34103;BME280;20381;54.498;18.206;2022-09-19T07:52:28;98574.14;;;12.02;88.93
34103;BME280;20381;54.498;18.206;2022-09-19T07:54:59;98579.44;;;12.13;89.12
34103;BME280;20381;54.498;18.206;2022-09-19T07:57:26;98583.30;;;12.26;89.13
34103;BME280;20381;54.498;18.206;2022-09-19T07:59:57;98584.13;;;12.26;88.53
34103;BME280;20381;54.498;18.206;2022-09-19T08:02:28;98586.61;;;12.41;89.24
34103;BME280;20381;54.498;18.206;2022-09-19T08:04:56;98581.86;;;12.75;89.49
34103;BME280;20381;54.498;18.206;2022-09-19T08:07:26;98595.19;;;12.72;87.79
34103;BME280;20381;54.498;18.206;2022-09-19T08:12:49;98585.44;;;12.74;87.99
34103;BME280;20381;54.498;18.206;2022-09-19T08:15:20;98582.98;;;12.60;87.43
34103;BME280;20381;54.498;18.206;2022-09-19T08:18:04;98583.94;;;12.59;88.30
34103;BME280;20381;54.498;18.206;2022-09-19T08:20:34;98583.20;;;12.87;88.90
34103;BME280;20381;54.498;18.206;2022-09-19T08:23:07;98592.31;;;13.05;88.84
34103;BME280;20381;54.498;18.206;2022-09-19T08:25:56;98594.84;;;13.24;89.12
34103;BME280;20381;54.498;18.206;2022-09-19T08:28:27;98588.92;;;13.44;88.97
34103;BME280;20381;54.498;18.206;2022-09-19T08:31:03;98589.30;;;13.68;89.57
34103;BME280;20381;54.498;18.206;2022-09-19T08:33:31;98597.41;;;13.87;88.89
34103;BME280;20381;54.498;18.206;2022-09-19T08:36:18;98597.22;;;14.17;89.86
34103;BME280;20381;54.498;18.206;2022-09-19T08:38:46;98598.09;;;14.61;90.45
34103;BME280;20381;54.498;18.206;2022-09-19T08:41:43;98595.05;;;14.97;89.87
34103;BME280;20381;54.498;18.206;2022-09-19T08:44:50;98602.95;;;15.18;89.25
34103;BME280;20381;54.498;18.206;2022-09-19T08:47:24;98600.81;;;15.33;89.12
34103;BME280;20381;54.498;18.206;2022-09-19T08:50:13;98602.21;;;15.37;87.41
34103;BME280;20381;54.498;18.206;2022-09-19T08:52:56;98603.71;;;15.30;87.63
34103;BME280;20381;54.498;18.206;2022-09-19T08:55:28;98609.19;;;15.12;86.27
34103;BME280;20381;54.498;18.206;2022-09-19T08:58:00;98612.84;;;14.73;86.25
34103;BME280;20381;54.498;18.206;2022-09-19T09:00:39;98610.72;;;14.67;86.98
34103;BME280;20381;54.498;18.206;2022-09-19T09:03:54;98611.73;;;14.81;86.48
34103;BME280;20381;54.498;18.206;2022-09-19T09:12:04;98619.42;;;14.99;86.90
34103;BME280;20381;54.498;18.206;2022-09-19T09:21:13;98622.05;;;15.41;85.33
34103;BME280;20381;54.498;18.206;2022-09-19T09:24:07;98613.47;;;15.55;86.21
34103;BME280;20381;54.498;18.206;2022-09-19T09:26:33;98628.20;;;15.52;85.36
34103;BME280;20381;54.498;18.206;2022-09-19T09:29:24;98627.38;;;15.30;84.51
34103;BME280;20381;54.498;18.206;2022-09-19T09:32:25;98628.91;;;14.91;83.28
34103;BME280;20381;54.498;18.206;2022-09-19T09:35:00;98624.02;;;14.86;84.66
34103;BME280;20381;54.498;18.206;2022-09-19T09:37:44;98628.87;;;14.64;84.28
34103;BME280;20381;54.498;18.206;2022-09-19T09:40:22;98624.97;;;14.53;84.17
34103;BME280;20381;54.498;18.206;2022-09-19T09:43:08;98631.77;;;14.44;83.84
34103;BME280;20381;54.498;18.206;2022-09-19T09:45:43;98634.53;;;14.48;84.78
34103;BME280;20381;54.498;18.206;2022-09-19T09:48:34;98635.84;;;14.48;83.93
34103;BME280;20381;54.498;18.206;2022-09-19T09:51:15;98634.90;;;14.38;84.15
34103;BME280;20381;54.498;18.206;2022-09-19T09:56:49;98632.50;;;14.46;84.51
34103;BME280;20381;54.498;18.206;2022-09-19T10:02:49;98636.92;;;14.84;84.42
34103;BME280;20381;54.498;18.206;2022-09-19T10:05:47;98630.80;;;14.68;83.06
34103;BME280;20381;54.498;18.206;2022-09-19T10:08:30;98632.22;;;14.98;84.08
34103;BME280;20381;54.498;18.206;2022-09-19T10:13:52;98634.55;;;15.28;82.91
34103;BME280;20381;54.498;18.206;2022-09-19T10:16:19;98631.97;;;15.43;83.69
34103;BME280;20381;54.498;18.206;2022-09-19T10:18:51;98629.86;;;15.53;82.69
34103;BME280;20381;54.498;18.206;2022-09-19T10:21:18;98632.14;;;15.67;83.63
34103;BME280;20381;54.498;18.206;2022-09-19T10:23:45;98624.70;;;15.87;82.90
34103;BME280;20381;54.498;18.206;2022-09-19T10:26:18;98623.19;;;16.10;83.17
34103;BME280;20381;54.498;18.206;2022-09-19T10:28:49;98622.07;;;16.28;81.37
34103;BME280;20381;54.498;18.206;2022-09-19T10:31:33;98631.62;;;16.19;81.27
34103;BME280;20381;54.498;18.206;2022-09-19T10:33:58;98645.45;;;15.29;75.82
34103;BME280;20381;54.498;18.206;2022-09-19T10:36:26;98651.89;;;14.23;76.84
34103;BME280;20381;54.498;18.206;2022-09-19T10:38:56;98658.08;;;13.54;78.16
34103;BME280;20381;54.498;18.206;2022-09-19T10:41:28;98668.03;;;13.27;80.12
34103;BME280;20381;54.498;18.206;2022-09-19T10:44:05;98662.11;;;13.06;81.26
34103;BME280;20381;54.498;18.206;2022-09-19T10:46:43;98671.86;;;13.04;82.04
34103;BME280;20381;54.498;18.206;2022-09-19T10:49:17;98668.08;;;13.08;82.24
34103;BME280;20381;54.498;18.206;2022-09-19T10:51:48;98674.13;;;13.03;82.48
34103;BME280;20381;54.498;18.206;2022-09-19T10:54:32;98675.91;;;12.97;82.57
34103;BME280;20381;54.498;18.206;2022-09-19T10:57:25;98673.59;;;13.16;83.40
34103;BME280;20381;54.498;18.206;2022-09-19T10:59:53;98678.60;;;13.72;84.22
34103;BME280;20381;54.498;18.206;2022-09-19T11:02:25;98667.05;;;13.97;82.15
34103;BME280;20381;54.498;18.206;2022-09-19T11:04:56;98672.66;;;14.20;83.07
34103;BME280;20381;54.498;18.206;2022-09-19T11:07:54;98677.64;;;14.40;79.51
34103;BME280;20381;54.498;18.206;2022-09-19T11:13:18;98684.32;;;14.33;78.59
34103;BME280;20381;54.498;18.206;2022-09-19T11:16:08;98681.11;;;14.29;79.39
34103;BME280;20381;54.498;18.206;2022-09-19T11:19:06;98691.48;;;14.31;77.54
34103;BME280;20381;54.498;18.206;2022-09-19T11:24:45;98693.00;;;14.50;77.94
34103;BME280;20381;54.498;18.206;2022-09-19T11:27:44;98685.34;;;14.70;78.34
34103;BME280;20381;54.498;18.206;2022-09-19T11:30:15;98692.44;;;14.52;76.58
34103;BME280;20381;54.498;18.206;2022-09-19T11:35:52;98688.34;;;14.71;77.28
34103;BME280;20381;54.498;18.206;2022-09-19T11:50:33;98703.89;;;15.90;76.71
34103;BME280;20381;54.498;18.206;2022-09-19T11:58:19;98710.45;;;15.00;72.98
34103;BME280;20381;54.498;18.206;2022-09-19T12:09:27;98704.37;;;15.00;72.30
34103;BME280;20381;54.498;18.206;2022-09-19T12:12:07;98714.09;;;14.88;71.42
34103;BME280;20381;54.498;18.206;2022-09-19T12:15:17;98711.62;;;14.70;73.19
34103;BME280;20381;54.498;18.206;2022-09-19T12:22:57;98717.61;;;14.49;73.48
34103;BME280;20381;54.498;18.206;2022-09-19T12:25:28;98719.91;;;14.54;73.13
34103;BME280;20381;54.498;18.206;2022-09-19T12:28:11;98717.34;;;14.75;74.42
34103;BME280;20381;54.498;18.206;2022-09-19T12:30:44;98718.52;;;14.88;74.29
34103;BME280;20381;54.498;18.206;2022-09-19T12:33:38;98724.31;;;15.03;71.62
34103;BME280;20381;54.498;18.206;2022-09-19T12:36:16;98729.65;;;15.18;74.06
34103;BME280;20381;54.498;18.206;2022-09-19T12:38:58;98722.59;;;15.39;74.38
34103;BME280;20381;54.498;18.206;2022-09-19T12:44:59;98731.84;;;15.81;73.92
34103;BME280;20381;54.498;18.206;2022-09-19T12:47:40;98741.05;;;15.81;73.40
34103;BME280;20381;54.498;18.206;2022-09-19T12:50:27;98738.00;;;15.65;73.03
34103;BME280;20381;54.498;18.206;2022-09-19T12:53:19;98743.61;;;15.24;71.49
34103;BME280;20381;54.498;18.206;2022-09-19T12:58:53;98756.30;;;14.59;71.44
34103;BME280;20381;54.498;18.206;2022-09-19T13:01:26;98758.22;;;14.40;72.42
34103;BME280;20381;54.498;18.206;2022-09-19T13:04:15;98752.59;;;14.33;72.81
34103;BME280;20381;54.498;18.206;2022-09-19T13:06:46;98765.23;;;14.28;71.90
34103;BME280;20381;54.498;18.206;2022-09-19T13:09:22;98767.52;;;14.27;72.34
34103;BME280;20381;54.498;18.206;2022-09-19T13:12:22;98762.61;;;14.39;73.41
34103;BME280;20381;54.498;18.206;2022-09-19T13:14:41;98764.30;;;14.51;72.47
34103;BME280;20381;54.498;18.206;2022-09-19T13:17:11;98765.03;;;14.65;72.46
34103;BME280;20381;54.498;18.206;2022-09-19T13:19:59;98758.66;;;14.78;71.54
34103;BME280;20381;54.498;18.206;2022-09-19T13:22:50;98784.27;;;15.09;72.04
34103;BME280;20381;54.498;18.206;2022-09-19T13:25:37;98776.35;;;15.20;70.54
34103;BME280;20381;54.498;18.206;2022-09-19T13:30:50;98780.05;;;14.85;70.05
34103;BME280;20381;54.498;18.206;2022-09-19T13:33:22;98785.07;;;14.43;70.41
34103;BME280;20381;54.498;18.206;2022-09-19T13:35:57;98781.13;;;14.21;71.22
34103;BME280;20381;54.498;18.206;2022-09-19T13:38:38;98789.06;;;13.91;72.79
34103;BME280;20381;54.498;18.206;2022-09-19T13:41:28;98791.90;;;13.77;73.12
34103;BME280;20381;54.498;18.206;2022-09-19T13:44:35;98789.39;;;13.70;73.32
34103;BME280;20381;54.498;18.206;2022-09-19T13:47:11;98797.92;;;13.60;73.54
34103;BME280;20381;54.498;18.206;2022-09-19T13:49:52;98795.41;;;13.53;73.73
34103;BME280;20381;54.498;18.206;2022-09-19T13:52:52;98792.45;;;13.63;74.21
34103;BME280;20381;54.498;18.206;2022-09-19T13:57:45;98796.13;;;13.96;74.39
34103;BME280;20381;54.498;18.206;2022-09-19T14:00:32;98802.34;;;14.01;74.49
34103;BME280;20381;54.498;18.206;2022-09-19T14:03:25;98792.21;;;14.19;74.73
34103;BME280;20381;54.498;18.206;2022-09-19T14:06:28;98794.37;;;14.42;74.60
34103;BME280;20381;54.498;18.206;2022-09-19T14:12:01;98817.95;;;14.02;70.96
34103;BME280;20381;54.498;18.206;2022-09-19T14:19:49;98822.70;;;13.27;72.63
34103;BME280;20381;54.498;18.206;2022-09-19T14:25:25;98827.30;;;13.05;73.32
34103;BME280;20381;54.498;18.206;2022-09-19T14:33:58;98830.11;;;12.96;73.90
34103;BME280;20381;54.498;18.206;2022-09-19T14:40:08;98834.27;;;12.74;75.20
34103;BME280;20381;54.498;18.206;2022-09-19T14:51:35;98843.98;;;12.28;76.71
34103;BME280;20381;54.498;18.206;2022-09-19T14:57:12;98844.23;;;12.18;77.31
34103;BME280;20381;54.498;18.206;2022-09-19T14:59:41;98845.36;;;12.21;77.06
34103;BME280;20381;54.498;18.206;2022-09-19T15:02:34;98839.95;;;12.17;77.16
34103;BME280;20381;54.498;18.206;2022-09-19T15:05:03;98855.97;;;12.25;77.07
34103;BME280;20381;54.498;18.206;2022-09-19T15:07:33;98856.80;;;12.26;77.01
34103;BME280;20381;54.498;18.206;2022-09-19T15:10:01;98860.59;;;12.22;77.39
34103;BME280;20381;54.498;18.206;2022-09-19T15:12:33;98857.31;;;12.18;77.76
34103;BME280;20381;54.498;18.206;2022-09-19T15:15:03;98863.50;;;12.17;77.39
34103;BME280;20381;54.498;18.206;2022-09-19T15:17:32;98856.42;;;12.12;77.42
34103;BME280;20381;54.498;18.206;2022-09-19T15:22:53;98856.39;;;12.19;77.52
34103;BME280;20381;54.498;18.206;2022-09-19T15:25:38;98853.14;;;12.28;77.52
34103;BME280;20381;54.498;18.206;2022-09-19T15:28:20;98856.33;;;12.26;77.50
34103;BME280;20381;54.498;18.206;2022-09-19T15:30:54;98852.79;;;12.27;77.42
34103;BME280;20381;54.498;18.206;2022-09-19T15:33:23;98844.05;;;12.21;77.45
34103;BME280;20381;54.498;18.206;2022-09-19T15:35:52;98857.13;;;12.21;77.43
34103;BME280;20381;54.498;18.206;2022-09-19T15:38:27;98855.12;;;12.12;77.64
34103;BME280;20381;54.498;18.206;2022-09-19T15:40:57;98862.64;;;12.04;77.64
34103;BME280;20381;54.498;18.206;2022-09-19T15:43:26;98859.88;;;12.00;77.79
34103;BME280;20381;54.498;18.206;2022-09-19T15:45:59;98861.39;;;11.97;77.76
34103;BME280;20381;54.498;18.206;2022-09-19T15:48:33;98859.52;;;11.99;78.05
34103;BME280;20381;54.498;18.206;2022-09-19T15:51:03;98861.19;;;12.00;77.83
34103;BME280;20381;54.498;18.206;2022-09-19T15:53:36;98869.98;;;11.99;78.21
34103;BME280;20381;54.498;18.206;2022-09-19T15:56:10;98869.98;;;11.99;78.21
34103;BME280;20381;54.498;18.206;2022-09-19T15:58:43;98871.65;;;12.00;78.05
34103;BME280;20381;54.498;18.206;2022-09-19T16:01:23;98871.30;;;11.99;78.00
34103;BME280;20381;54.498;18.206;2022-09-19T16:04:20;98877.45;;;11.98;78.33
34103;BME280;20381;54.498;18.206;2022-09-19T16:06:59;98873.16;;;11.97;78.14
34103;BME280;20381;54.498;18.206;2022-09-19T16:09:38;98871.11;;;11.95;78.10
34103;BME280;20381;54.498;18.206;2022-09-19T16:12:30;98874.50;;;11.90;78.23
34103;BME280;20381;54.498;18.206;2022-09-19T16:15:02;98866.50;;;11.85;78.39
34103;BME280;20381;54.498;18.206;2022-09-19T16:26:00;98878.13;;;11.67;78.69
34103;BME280;20381;54.498;18.206;2022-09-19T16:31:26;98895.25;;;11.58;79.11
34103;BME280;20381;54.498;18.206;2022-09-19T16:36:59;98894.31;;;11.32;78.75